sensor_id;sensor_type;location;lat;lon;timestamp;P1;durP1;ratioP1;P2;durP2;ratioP2
52798;SDS011;38667;42.872;74.622;2022-12-05T00:01:02;181.87;;;56.70;;
52798;SDS011;38667;42.872;74.622;2022-12-05T00:03:39;177.90;;;55.13;;
52798;SDS011;38667;42.872;74.622;2022-12-05T00:06:06;155.80;;;52.17;;
52798;SDS011;38667;42.872;74.622;2022-12-05T00:08:32;158.07;;;50.77;;
52798;SDS011;38667;42.872;74.622;2022-12-05T00:10:58;153.73;;;46.67;;
52798;SDS011;38667;42.872;74.622;2022-12-05T00:13:25;138.40;;;44.77;;
52798;SDS011;38667;42.872;74.622;2022-12-05T00:15:51;149.70;;;46.20;;
52798;SDS011;38667;42.872;74.622;2022-12-05T00:18:17;144.70;;;46.43;;
52798;SDS011;38667;42.872;74.622;2022-12-05T00:20:45;132.33;;;45.00;;
52798;SDS011;38667;42.872;74.622;2022-12-05T00:23:12;138.23;;;44.00;;
52798;SDS011;38667;42.872;74.622;2022-12-05T00:25:39;137.40;;;42.20;;
52798;SDS011;38667;42.872;74.622;2022-12-05T00:28:06;137.07;;;42.97;;
52798;SDS011;38667;42.872;74.622;2022-12-05T00:30:32;143.73;;;42.20;;
52798;SDS011;38667;42.872;74.622;2022-12-05T00:32:58;125.30;;;40.33;;
52798;SDS011;38667;42.872;74.622;2022-12-05T00:35:25;144.43;;;42.20;;
52798;SDS011;38667;42.872;74.622;2022-12-05T00:37:52;143.00;;;42.67;;
52798;SDS011;38667;42.872;74.622;2022-12-05T00:40:19;129.07;;;43.60;;
52798;SDS011;38667;42.872;74.622;2022-12-05T00:42:45;132.13;;;42.40;;
52798;SDS011;38667;42.872;74.622;2022-12-05T00:45:11;145.70;;;45.47;;
52798;SDS011;38667;42.872;74.622;2022-12-05T00:47:38;141.27;;;44.73;;
52798;SDS011;38667;42.872;74.622;2022-12-05T00:50:04;158.10;;;45.10;;
52798;SDS011;38667;42.872;74.622;2022-12-05T00:52:32;165.33;;;50.13;;
52798;SDS011;38667;42.872;74.622;2022-12-05T00:54:59;149.97;;;46.40;;
52798;SDS011;38667;42.872;74.622;2022-12-05T00:57:26;132.97;;;44.07;;
52798;SDS011;38667;42.872;74.622;2022-12-05T00:59:52;145.23;;;45.70;;
52798;SDS011;38667;42.872;74.622;2022-12-05T01:02:18;168.93;;;54.07;;
52798;SDS011;38667;42.872;74.622;2022-12-05T01:04:45;158.70;;;47.90;;
52798;SDS011;38667;42.872;74.622;2022-12-05T01:07:11;153.87;;;45.23;;
52798;SDS011;38667;42.872;74.622;2022-12-05T01:09:37;137.27;;;42.60;;
52798;SDS011;38667;42.872;74.622;2022-12-05T01:12:05;132.00;;;45.60;;
52798;SDS011;38667;42.872;74.622;2022-12-05T01:14:32;130.87;;;42.97;;
52798;SDS011;38667;42.872;74.622;2022-12-05T01:16:58;140.50;;;42.73;;
52798;SDS011;38667;42.872;74.622;2022-12-05T01:19:25;140.90;;;43.37;;
52798;SDS011;38667;42.872;74.622;2022-12-05T01:21:56;127.03;;;43.50;;
52798;SDS011;38667;42.872;74.622;2022-12-05T01:24:23;151.10;;;46.20;;
52798;SDS011;38667;42.872;74.622;2022-12-05T01:26:51;149.30;;;47.63;;
52798;SDS011;38667;42.872;74.622;2022-12-05T01:29:19;160.60;;;52.37;;
52798;SDS011;38667;42.872;74.622;2022-12-05T01:31:46;170.20;;;51.80;;
52798;SDS011;38667;42.872;74.622;2022-12-05T01:34:14;184.47;;;57.33;;
52798;SDS011;38667;42.872;74.622;2022-12-05T01:36:41;173.70;;;50.77;;
52798;SDS011;38667;42.872;74.622;2022-12-05T01:39:08;189.47;;;55.03;;
52798;SDS011;38667;42.872;74.622;2022-12-05T01:41:36;175.67;;;55.00;;
52798;SDS011;38667;42.872;74.622;2022-12-05T01:44:05;214.97;;;59.70;;
52798;SDS011;38667;42.872;74.622;2022-12-05T01:46:34;196.37;;;61.37;;
52798;SDS011;38667;42.872;74.622;2022-12-05T01:49:02;200.20;;;59.90;;
52798;SDS011;38667;42.872;74.622;2022-12-05T01:51:32;194.27;;;61.17;;
52798;SDS011;38667;42.872;74.622;2022-12-05T01:54:00;185.73;;;56.10;;
52798;SDS011;38667;42.872;74.622;2022-12-05T01:56:26;177.57;;;57.70;;
52798;SDS011;38667;42.872;74.622;2022-12-05T01:58:53;173.53;;;52.80;;
52798;SDS011;38667;42.872;74.622;2022-12-05T02:03:57;169.57;;;56.17;;
52798;SDS011;38667;42.872;74.622;2022-12-05T02:07:40;193.43;;;58.27;;
52798;SDS011;38667;42.872;74.622;2022-12-05T02:10:08;193.43;;;62.10;;
52798;SDS011;38667;42.872;74.622;2022-12-05T02:12:35;214.73;;;61.47;;
52798;SDS011;38667;42.872;74.622;2022-12-05T02:15:06;191.40;;;60.53;;
52798;SDS011;38667;42.872;74.622;2022-12-05T02:17:51;178.23;;;56.33;;
52798;SDS011;38667;42.872;74.622;2022-12-05T02:20:27;185.47;;;57.40;;
52798;SDS011;38667;42.872;74.622;2022-12-05T02:23:10;184.70;;;56.07;;
52798;SDS011;38667;42.872;74.622;2022-12-05T02:26:08;183.77;;;55.53;;
52798;SDS011;38667;42.872;74.622;2022-12-05T02:29:09;186.97;;;54.30;;
52798;SDS011;38667;42.872;74.622;2022-12-05T02:31:53;179.77;;;53.43;;
52798;SDS011;38667;42.872;74.622;2022-12-05T02:34:30;198.23;;;56.97;;
52798;SDS011;38667;42.872;74.622;2022-12-05T02:37:02;176.23;;;55.30;;
52798;SDS011;38667;42.872;74.622;2022-12-05T02:39:37;200.47;;;58.40;;
52798;SDS011;38667;42.872;74.622;2022-12-05T02:42:08;190.23;;;53.90;;
52798;SDS011;38667;42.872;74.622;2022-12-05T02:44:40;191.43;;;53.17;;
52798;SDS011;38667;42.872;74.622;2022-12-05T02:47:12;191.03;;;56.50;;
52798;SDS011;38667;42.872;74.622;2022-12-05T02:49:41;182.63;;;57.57;;
52798;SDS011;38667;42.872;74.622;2022-12-05T02:52:09;188.93;;;54.97;;
52798;SDS011;38667;42.872;74.622;2022-12-05T02:54:39;184.23;;;57.40;;
52798;SDS011;38667;42.872;74.622;2022-12-05T02:57:08;209.63;;;59.77;;
52798;SDS011;38667;42.872;74.622;2022-12-05T02:59:35;209.77;;;60.43;;
52798;SDS011;38667;42.872;74.622;2022-12-05T03:02:02;205.57;;;62.07;;
52798;SDS011;38667;42.872;74.622;2022-12-05T03:04:30;206.50;;;60.37;;
52798;SDS011;38667;42.872;74.622;2022-12-05T03:06:57;211.20;;;59.33;;
52798;SDS011;38667;42.872;74.622;2022-12-05T03:09:27;199.63;;;59.33;;
52798;SDS011;38667;42.872;74.622;2022-12-05T03:11:58;195.67;;;57.87;;
52798;SDS011;38667;42.872;74.622;2022-12-05T03:14:29;192.20;;;61.77;;
52798;SDS011;38667;42.872;74.622;2022-12-05T03:17:00;182.83;;;56.47;;
52798;SDS011;38667;42.872;74.622;2022-12-05T03:19:31;182.13;;;55.63;;
52798;SDS011;38667;42.872;74.622;2022-12-05T03:22:07;198.37;;;60.27;;
52798;SDS011;38667;42.872;74.622;2022-12-05T03:24:38;200.67;;;59.03;;
52798;SDS011;38667;42.872;74.622;2022-12-05T03:27:06;178.30;;;58.80;;
52798;SDS011;38667;42.872;74.622;2022-12-05T03:29:39;180.00;;;56.50;;
52798;SDS011;38667;42.872;74.622;2022-12-05T03:32:13;182.07;;;56.53;;
52798;SDS011;38667;42.872;74.622;2022-12-05T03:34:50;172.37;;;54.47;;
52798;SDS011;38667;42.872;74.622;2022-12-05T03:37:26;178.70;;;56.30;;
52798;SDS011;38667;42.872;74.622;2022-12-05T03:40:02;163.33;;;53.43;;
52798;SDS011;38667;42.872;74.622;2022-12-05T03:42:32;177.80;;;52.07;;
52798;SDS011;38667;42.872;74.622;2022-12-05T03:45:02;185.67;;;58.13;;
52798;SDS011;38667;42.872;74.622;2022-12-05T03:47:33;183.87;;;56.43;;
52798;SDS011;38667;42.872;74.622;2022-12-05T03:50:06;209.00;;;62.20;;
52798;SDS011;38667;42.872;74.622;2022-12-05T03:52:39;181.37;;;59.13;;
52798;SDS011;38667;42.872;74.622;2022-12-05T03:55:09;208.10;;;64.10;;
52798;SDS011;38667;42.872;74.622;2022-12-05T03:57:38;193.43;;;61.67;;
52798;SDS011;38667;42.872;74.622;2022-12-05T04:00:09;180.60;;;57.60;;
52798;SDS011;38667;42.872;74.622;2022-12-05T04:02:41;199.47;;;62.10;;
52798;SDS011;38667;42.872;74.622;2022-12-05T04:05:15;184.67;;;63.07;;
52798;SDS011;38667;42.872;74.622;2022-12-05T04:07:44;195.00;;;64.63;;
52798;SDS011;38667;42.872;74.622;2022-12-05T04:10:14;204.20;;;61.33;;
52798;SDS011;38667;42.872;74.622;2022-12-05T04:12:44;223.30;;;67.13;;
52798;SDS011;38667;42.872;74.622;2022-12-05T04:15:14;216.97;;;62.43;;
52798;SDS011;38667;42.872;74.622;2022-12-05T04:17:45;197.23;;;63.67;;
52798;SDS011;38667;42.872;74.622;2022-12-05T04:20:17;238.60;;;83.85;;
52798;SDS011;38667;42.872;74.622;2022-12-05T04:22:48;215.23;;;73.93;;
52798;SDS011;38667;42.872;74.622;2022-12-05T04:25:14;223.37;;;73.97;;
52798;SDS011;38667;42.872;74.622;2022-12-05T04:27:45;188.40;;;61.87;;
52798;SDS011;38667;42.872;74.622;2022-12-05T04:30:17;187.03;;;59.40;;
52798;SDS011;38667;42.872;74.622;2022-12-05T04:32:47;194.17;;;64.00;;
52798;SDS011;38667;42.872;74.622;2022-12-05T04:35:19;187.60;;;61.67;;
52798;SDS011;38667;42.872;74.622;2022-12-05T04:37:50;195.33;;;59.90;;
52798;SDS011;38667;42.872;74.622;2022-12-05T04:40:21;193.37;;;61.93;;
52798;SDS011;38667;42.872;74.622;2022-12-05T04:42:52;186.63;;;62.07;;
52798;SDS011;38667;42.872;74.622;2022-12-05T04:45:21;201.13;;;61.63;;
52798;SDS011;38667;42.872;74.622;2022-12-05T04:47:52;197.27;;;57.93;;
52798;SDS011;38667;42.872;74.622;2022-12-05T04:50:23;180.03;;;57.03;;
52798;SDS011;38667;42.872;74.622;2022-12-05T04:52:51;215.97;;;68.13;;
52798;SDS011;38667;42.872;74.622;2022-12-05T04:55:21;207.53;;;65.30;;
52798;SDS011;38667;42.872;74.622;2022-12-05T04:57:48;206.90;;;64.97;;
52798;SDS011;38667;42.872;74.622;2022-12-05T05:00:22;195.50;;;62.33;;
52798;SDS011;38667;42.872;74.622;2022-12-05T05:02:49;209.70;;;63.20;;
52798;SDS011;38667;42.872;74.622;2022-12-05T05:05:19;202.30;;;64.17;;
52798;SDS011;38667;42.872;74.622;2022-12-05T05:07:49;191.67;;;62.50;;
52798;SDS011;38667;42.872;74.622;2022-12-05T05:10:18;201.00;;;65.23;;
52798;SDS011;38667;42.872;74.622;2022-12-05T05:12:49;204.33;;;62.90;;
52798;SDS011;38667;42.872;74.622;2022-12-05T05:15:16;214.50;;;67.80;;
52798;SDS011;38667;42.872;74.622;2022-12-05T05:17:42;219.60;;;66.10;;
52798;SDS011;38667;42.872;74.622;2022-12-05T05:20:09;196.90;;;59.57;;
52798;SDS011;38667;42.872;74.622;2022-12-05T05:22:35;209.17;;;61.87;;
52798;SDS011;38667;42.872;74.622;2022-12-05T05:25:03;203.50;;;61.33;;
52798;SDS011;38667;42.872;74.622;2022-12-05T05:27:30;217.27;;;62.83;;
52798;SDS011;38667;42.872;74.622;2022-12-05T05:29:56;226.37;;;65.93;;
52798;SDS011;38667;42.872;74.622;2022-12-05T05:32:22;215.33;;;67.13;;
52798;SDS011;38667;42.872;74.622;2022-12-05T05:34:48;210.73;;;68.47;;
52798;SDS011;38667;42.872;74.622;2022-12-05T05:37:15;211.17;;;68.37;;
52798;SDS011;38667;42.872;74.622;2022-12-05T05:39:41;226.07;;;69.23;;
52798;SDS011;38667;42.872;74.622;2022-12-05T05:42:09;229.57;;;71.80;;
52798;SDS011;38667;42.872;74.622;2022-12-05T05:44:35;257.93;;;75.50;;
52798;SDS011;38667;42.872;74.622;2022-12-05T05:47:02;242.80;;;76.43;;
52798;SDS011;38667;42.872;74.622;2022-12-05T05:49:28;234.77;;;72.87;;
52798;SDS011;38667;42.872;74.622;2022-12-05T05:51:54;254.50;;;76.80;;
52798;SDS011;38667;42.872;74.622;2022-12-05T05:54:20;243.03;;;81.00;;
52798;SDS011;38667;42.872;74.622;2022-12-05T05:56:47;237.67;;;72.93;;
52798;SDS011;38667;42.872;74.622;2022-12-05T05:59:15;239.43;;;70.87;;
52798;SDS011;38667;42.872;74.622;2022-12-05T06:01:41;253.60;;;71.73;;
52798;SDS011;38667;42.872;74.622;2022-12-05T06:04:07;229.30;;;69.13;;
52798;SDS011;38667;42.872;74.622;2022-12-05T06:06:34;213.40;;;69.33;;
52798;SDS011;38667;42.872;74.622;2022-12-05T06:09:00;217.37;;;66.40;;
52798;SDS011;38667;42.872;74.622;2022-12-05T06:11:26;204.73;;;65.23;;
52798;SDS011;38667;42.872;74.622;2022-12-05T06:13:53;217.90;;;66.00;;
52798;SDS011;38667;42.872;74.622;2022-12-05T06:16:22;216.50;;;66.10;;
52798;SDS011;38667;42.872;74.622;2022-12-05T06:18:49;209.70;;;64.67;;
52798;SDS011;38667;42.872;74.622;2022-12-05T06:21:17;214.83;;;68.40;;
52798;SDS011;38667;42.872;74.622;2022-12-05T06:23:43;211.30;;;65.30;;
52798;SDS011;38667;42.872;74.622;2022-12-05T06:26:10;212.10;;;65.10;;
52798;SDS011;38667;42.872;74.622;2022-12-05T06:28:38;213.33;;;65.90;;
52798;SDS011;38667;42.872;74.622;2022-12-05T06:31:08;215.10;;;69.43;;
52798;SDS011;38667;42.872;74.622;2022-12-05T06:33:37;212.53;;;63.90;;
52798;SDS011;38667;42.872;74.622;2022-12-05T06:36:04;195.63;;;63.27;;
52798;SDS011;38667;42.872;74.622;2022-12-05T06:38:31;223.60;;;66.57;;
52798;SDS011;38667;42.872;74.622;2022-12-05T06:40:58;212.80;;;65.70;;
52798;SDS011;38667;42.872;74.622;2022-12-05T06:43:24;202.90;;;62.37;;
52798;SDS011;38667;42.872;74.622;2022-12-05T06:45:51;212.47;;;62.10;;
52798;SDS011;38667;42.872;74.622;2022-12-05T06:48:17;194.37;;;63.00;;
52798;SDS011;38667;42.872;74.622;2022-12-05T06:50:48;202.00;;;61.67;;
52798;SDS011;38667;42.872;74.622;2022-12-05T06:53:15;203.47;;;64.83;;
52798;SDS011;38667;42.872;74.622;2022-12-05T06:55:41;213.67;;;62.50;;
52798;SDS011;38667;42.872;74.622;2022-12-05T06:58:08;219.23;;;65.50;;
52798;SDS011;38667;42.872;74.622;2022-12-05T07:00:34;207.50;;;65.30;;
52798;SDS011;38667;42.872;74.622;2022-12-05T07:03:01;226.03;;;66.77;;
52798;SDS011;38667;42.872;74.622;2022-12-05T07:05:27;200.83;;;62.37;;
52798;SDS011;38667;42.872;74.622;2022-12-05T07:07:55;213.33;;;65.37;;
52798;SDS011;38667;42.872;74.622;2022-12-05T07:10:21;236.00;;;66.30;;
52798;SDS011;38667;42.872;74.622;2022-12-05T07:12:48;212.93;;;64.10;;
52798;SDS011;38667;42.872;74.622;2022-12-05T07:15:14;207.50;;;65.53;;
52798;SDS011;38667;42.872;74.622;2022-12-05T07:17:40;219.60;;;65.73;;
52798;SDS011;38667;42.872;74.622;2022-12-05T07:20:07;200.87;;;61.37;;
52798;SDS011;38667;42.872;74.622;2022-12-05T07:22:34;211.73;;;67.43;;
52798;SDS011;38667;42.872;74.622;2022-12-05T07:25:03;230.40;;;67.90;;
52798;SDS011;38667;42.872;74.622;2022-12-05T07:27:30;227.43;;;70.43;;
52798;SDS011;38667;42.872;74.622;2022-12-05T07:29:57;233.53;;;71.03;;
52798;SDS011;38667;42.872;74.622;2022-12-05T07:32:23;222.80;;;72.97;;
52798;SDS011;38667;42.872;74.622;2022-12-05T07:34:49;202.40;;;69.40;;
52798;SDS011;38667;42.872;74.622;2022-12-05T07:37:16;228.07;;;71.60;;
52798;SDS011;38667;42.872;74.622;2022-12-05T07:39:42;208.30;;;69.53;;
52798;SDS011;38667;42.872;74.622;2022-12-05T07:42:10;217.50;;;68.80;;
52798;SDS011;38667;42.872;74.622;2022-12-05T07:44:36;220.90;;;66.97;;
52798;SDS011;38667;42.872;74.622;2022-12-05T07:47:03;203.90;;;65.87;;
52798;SDS011;38667;42.872;74.622;2022-12-05T07:49:29;214.33;;;65.07;;
52798;SDS011;38667;42.872;74.622;2022-12-05T07:51:55;209.50;;;64.70;;
52798;SDS011;38667;42.872;74.622;2022-12-05T07:54:22;209.53;;;68.20;;
52798;SDS011;38667;42.872;74.622;2022-12-05T07:56:48;214.27;;;68.80;;
52798;SDS011;38667;42.872;74.622;2022-12-05T07:59:16;205.70;;;61.77;;
52798;SDS011;38667;42.872;74.622;2022-12-05T08:01:43;204.87;;;62.77;;
52798;SDS011;38667;42.872;74.622;2022-12-05T08:04:09;210.33;;;63.37;;
52798;SDS011;38667;42.872;74.622;2022-12-05T08:06:36;213.10;;;65.57;;
52798;SDS011;38667;42.872;74.622;2022-12-05T08:09:02;225.97;;;68.10;;
52798;SDS011;38667;42.872;74.622;2022-12-05T08:11:29;221.10;;;66.40;;
52798;SDS011;38667;42.872;74.622;2022-12-05T08:13:57;214.50;;;69.70;;
52798;SDS011;38667;42.872;74.622;2022-12-05T08:16:26;215.97;;;67.80;;
52798;SDS011;38667;42.872;74.622;2022-12-05T08:18:53;206.27;;;64.53;;
52798;SDS011;38667;42.872;74.622;2022-12-05T08:21:19;223.40;;;67.43;;
52798;SDS011;38667;42.872;74.622;2022-12-05T08:23:46;224.40;;;66.03;;
52798;SDS011;38667;42.872;74.622;2022-12-05T08:26:13;223.77;;;67.00;;
52798;SDS011;38667;42.872;74.622;2022-12-05T08:28:41;223.33;;;65.27;;
52798;SDS011;38667;42.872;74.622;2022-12-05T08:31:08;201.13;;;64.30;;
52798;SDS011;38667;42.872;74.622;2022-12-05T08:33:38;208.63;;;65.50;;
52798;SDS011;38667;42.872;74.622;2022-12-05T08:36:05;229.30;;;69.10;;
52798;SDS011;38667;42.872;74.622;2022-12-05T08:38:33;217.57;;;69.63;;
52798;SDS011;38667;42.872;74.622;2022-12-05T08:40:59;234.47;;;73.93;;
52798;SDS011;38667;42.872;74.622;2022-12-05T08:43:26;223.27;;;68.53;;
52798;SDS011;38667;42.872;74.622;2022-12-05T08:45:52;221.77;;;66.17;;
52798;SDS011;38667;42.872;74.622;2022-12-05T08:48:19;199.73;;;64.97;;
52798;SDS011;38667;42.872;74.622;2022-12-05T08:50:48;215.33;;;65.60;;
52798;SDS011;38667;42.872;74.622;2022-12-05T08:53:14;218.87;;;66.50;;
52798;SDS011;38667;42.872;74.622;2022-12-05T08:55:41;221.57;;;66.03;;
52798;SDS011;38667;42.872;74.622;2022-12-05T08:58:07;215.30;;;66.63;;
52798;SDS011;38667;42.872;74.622;2022-12-05T09:00:34;219.43;;;69.50;;
52798;SDS011;38667;42.872;74.622;2022-12-05T09:03:00;227.60;;;70.53;;
52798;SDS011;38667;42.872;74.622;2022-12-05T09:05:26;216.10;;;69.37;;
52798;SDS011;38667;42.872;74.622;2022-12-05T09:07:54;216.77;;;66.27;;
52798;SDS011;38667;42.872;74.622;2022-12-05T09:10:21;208.47;;;65.03;;
52798;SDS011;38667;42.872;74.622;2022-12-05T09:12:47;202.03;;;63.37;;
52798;SDS011;38667;42.872;74.622;2022-12-05T09:15:14;226.03;;;64.70;;
52798;SDS011;38667;42.872;74.622;2022-12-05T09:17:40;204.23;;;64.50;;
52798;SDS011;38667;42.872;74.622;2022-12-05T09:20:07;193.67;;;62.97;;
52798;SDS011;38667;42.872;74.622;2022-12-05T09:22:34;207.77;;;64.00;;
52798;SDS011;38667;42.872;74.622;2022-12-05T09:25:01;189.10;;;59.80;;
52798;SDS011;38667;42.872;74.622;2022-12-05T09:27:28;191.03;;;59.47;;
52798;SDS011;38667;42.872;74.622;2022-12-05T09:29:54;181.00;;;60.50;;
52798;SDS011;38667;42.872;74.622;2022-12-05T09:32:21;191.53;;;63.47;;
52798;SDS011;38667;42.872;74.622;2022-12-05T09:34:47;192.83;;;63.93;;
52798;SDS011;38667;42.872;74.622;2022-12-05T09:37:13;196.53;;;65.70;;
52798;SDS011;38667;42.872;74.622;2022-12-05T09:39:41;184.33;;;59.77;;
52798;SDS011;38667;42.872;74.622;2022-12-05T09:42:12;176.67;;;61.23;;
52798;SDS011;38667;42.872;74.622;2022-12-05T09:47:45;199.00;;;63.80;;
52798;SDS011;38667;42.872;74.622;2022-12-05T09:50:17;210.77;;;62.23;;
52798;SDS011;38667;42.872;74.622;2022-12-05T09:52:48;188.87;;;58.57;;
52798;SDS011;38667;42.872;74.622;2022-12-05T09:55:36;168.03;;;58.17;;
52798;SDS011;38667;42.872;74.622;2022-12-05T10:00:56;177.13;;;56.10;;
52798;SDS011;38667;42.872;74.622;2022-12-05T10:03:28;186.90;;;61.53;;
52798;SDS011;38667;42.872;74.622;2022-12-05T10:06:08;175.60;;;58.70;;
52798;SDS011;38667;42.872;74.622;2022-12-05T10:08:53;180.73;;;56.50;;
52798;SDS011;38667;42.872;74.622;2022-12-05T10:11:33;157.37;;;57.90;;
52798;SDS011;38667;42.872;74.622;2022-12-05T10:14:05;174.57;;;55.53;;
52798;SDS011;38667;42.872;74.622;2022-12-05T10:16:40;166.33;;;53.60;;
52798;SDS011;38667;42.872;74.622;2022-12-05T10:19:11;159.77;;;52.70;;
52798;SDS011;38667;42.872;74.622;2022-12-05T10:21:42;147.90;;;50.93;;
52798;SDS011;38667;42.872;74.622;2022-12-05T10:24:13;147.67;;;49.00;;
52798;SDS011;38667;42.872;74.622;2022-12-05T10:26:43;143.87;;;46.93;;
52798;SDS011;38667;42.872;74.622;2022-12-05T10:29:21;147.10;;;46.97;;
52798;SDS011;38667;42.872;74.622;2022-12-05T10:31:53;139.10;;;48.30;;
52798;SDS011;38667;42.872;74.622;2022-12-05T10:34:27;164.73;;;52.57;;
52798;SDS011;38667;42.872;74.622;2022-12-05T10:36:57;141.20;;;49.07;;
52798;SDS011;38667;42.872;74.622;2022-12-05T10:39:32;146.40;;;50.13;;
52798;SDS011;38667;42.872;74.622;2022-12-05T10:41:58;142.97;;;49.40;;
52798;SDS011;38667;42.872;74.622;2022-12-05T10:44:25;141.67;;;47.83;;
52798;SDS011;38667;42.872;74.622;2022-12-05T10:46:53;146.33;;;50.70;;
52798;SDS011;38667;42.872;74.622;2022-12-05T10:49:19;153.37;;;51.47;;
52798;SDS011;38667;42.872;74.622;2022-12-05T10:51:47;151.47;;;50.77;;
52798;SDS011;38667;42.872;74.622;2022-12-05T10:54:15;154.60;;;51.27;;
52798;SDS011;38667;42.872;74.622;2022-12-05T10:56:45;139.17;;;48.93;;
52798;SDS011;38667;42.872;74.622;2022-12-05T10:59:14;152.10;;;50.30;;
52798;SDS011;38667;42.872;74.622;2022-12-05T11:01:46;148.70;;;49.00;;
52798;SDS011;38667;42.872;74.622;2022-12-05T11:04:23;142.47;;;50.07;;
52798;SDS011;38667;42.872;74.622;2022-12-05T11:06:54;130.80;;;46.73;;
52798;SDS011;38667;42.872;74.622;2022-12-05T11:09:23;145.17;;;49.07;;
52798;SDS011;38667;42.872;74.622;2022-12-05T11:14:45;141.47;;;49.23;;
52798;SDS011;38667;42.872;74.622;2022-12-05T11:17:23;149.83;;;49.73;;
52798;SDS011;38667;42.872;74.622;2022-12-05T11:19:53;140.93;;;51.37;;
52798;SDS011;38667;42.872;74.622;2022-12-05T11:22:19;169.13;;;56.63;;
52798;SDS011;38667;42.872;74.622;2022-12-05T11:24:54;157.27;;;54.73;;
52798;SDS011;38667;42.872;74.622;2022-12-05T11:27:23;150.03;;;52.20;;
52798;SDS011;38667;42.872;74.622;2022-12-05T11:29:53;152.03;;;51.97;;
52798;SDS011;38667;42.872;74.622;2022-12-05T11:32:25;128.43;;;49.30;;
52798;SDS011;38667;42.872;74.622;2022-12-05T11:34:55;137.40;;;48.70;;
52798;SDS011;38667;42.872;74.622;2022-12-05T11:37:30;154.10;;;50.40;;
52798;SDS011;38667;42.872;74.622;2022-12-05T11:39:59;142.03;;;48.00;;
52798;SDS011;38667;42.872;74.622;2022-12-05T11:42:30;129.97;;;47.90;;
52798;SDS011;38667;42.872;74.622;2022-12-05T11:45:08;111.73;;;43.20;;
52798;SDS011;38667;42.872;74.622;2022-12-05T11:48:02;114.00;;;44.17;;
52798;SDS011;38667;42.872;74.622;2022-12-05T11:50:41;113.73;;;42.33;;
52798;SDS011;38667;42.872;74.622;2022-12-05T11:53:29;126.57;;;43.87;;
52798;SDS011;38667;42.872;74.622;2022-12-05T11:56:10;103.70;;;40.77;;
52798;SDS011;38667;42.872;74.622;2022-12-05T11:58:51;101.90;;;38.70;;
52798;SDS011;38667;42.872;74.622;2022-12-05T12:01:27;96.40;;;37.10;;
52798;SDS011;38667;42.872;74.622;2022-12-05T12:04:06;100.73;;;36.13;;
52798;SDS011;38667;42.872;74.622;2022-12-05T12:06:59;96.50;;;35.90;;
52798;SDS011;38667;42.872;74.622;2022-12-05T12:09:40;82.63;;;32.47;;
52798;SDS011;38667;42.872;74.622;2022-12-05T12:12:17;86.83;;;34.33;;
52798;SDS011;38667;42.872;74.622;2022-12-05T12:14:53;78.03;;;33.70;;
52798;SDS011;38667;42.872;74.622;2022-12-05T12:17:29;88.37;;;33.47;;
52798;SDS011;38667;42.872;74.622;2022-12-05T12:20:09;83.07;;;33.70;;
52798;SDS011;38667;42.872;74.622;2022-12-05T12:22:51;79.97;;;32.23;;
52798;SDS011;38667;42.872;74.622;2022-12-05T12:25:36;81.47;;;33.63;;
52798;SDS011;38667;42.872;74.622;2022-12-05T12:28:13;80.50;;;34.70;;
52798;SDS011;38667;42.872;74.622;2022-12-05T12:30:55;87.07;;;35.07;;
52798;SDS011;38667;42.872;74.622;2022-12-05T12:33:31;87.40;;;35.27;;
52798;SDS011;38667;42.872;74.622;2022-12-05T12:36:06;89.53;;;37.30;;
52798;SDS011;38667;42.872;74.622;2022-12-05T12:38:46;93.83;;;37.00;;
52798;SDS011;38667;42.872;74.622;2022-12-05T12:41:40;87.83;;;36.27;;
52798;SDS011;38667;42.872;74.622;2022-12-05T12:44:20;96.93;;;39.70;;
52798;SDS011;38667;42.872;74.622;2022-12-05T12:47:06;97.07;;;39.90;;
52798;SDS011;38667;42.872;74.622;2022-12-05T12:49:43;111.67;;;44.70;;
52798;SDS011;38667;42.872;74.622;2022-12-05T12:52:20;99.73;;;42.10;;
52798;SDS011;38667;42.872;74.622;2022-12-05T12:54:53;106.17;;;44.10;;
52798;SDS011;38667;42.872;74.622;2022-12-05T12:57:30;104.37;;;41.60;;
52798;SDS011;38667;42.872;74.622;2022-12-05T13:00:10;97.37;;;38.10;;
52798;SDS011;38667;42.872;74.622;2022-12-05T13:02:45;93.13;;;39.53;;
52798;SDS011;38667;42.872;74.622;2022-12-05T13:05:18;97.37;;;41.93;;
52798;SDS011;38667;42.872;74.622;2022-12-05T13:07:52;99.30;;;42.40;;
52798;SDS011;38667;42.872;74.622;2022-12-05T13:10:24;101.13;;;44.23;;
52798;SDS011;38667;42.872;74.622;2022-12-05T13:12:54;123.70;;;51.13;;
52798;SDS011;38667;42.872;74.622;2022-12-05T13:15:27;111.53;;;48.90;;
52798;SDS011;38667;42.872;74.622;2022-12-05T13:17:58;115.73;;;53.30;;
52798;SDS011;38667;42.872;74.622;2022-12-05T13:20:31;103.40;;;48.13;;
52798;SDS011;38667;42.872;74.622;2022-12-05T13:22:59;105.17;;;47.70;;
52798;SDS011;38667;42.872;74.622;2022-12-05T13:25:30;96.83;;;44.63;;
52798;SDS011;38667;42.872;74.622;2022-12-05T13:27:59;97.00;;;42.47;;
52798;SDS011;38667;42.872;74.622;2022-12-05T13:30:27;94.37;;;43.73;;
52798;SDS011;38667;42.872;74.622;2022-12-05T13:32:54;99.07;;;42.53;;
52798;SDS011;38667;42.872;74.622;2022-12-05T13:35:25;89.57;;;41.63;;
52798;SDS011;38667;42.872;74.622;2022-12-05T13:37:55;93.80;;;38.77;;
52798;SDS011;38667;42.872;74.622;2022-12-05T13:40:23;85.27;;;39.00;;
52798;SDS011;38667;42.872;74.622;2022-12-05T13:42:58;113.32;;;57.42;;
52798;SDS011;38667;42.872;74.622;2022-12-05T13:45:26;115.33;;;54.27;;
52798;SDS011;38667;42.872;74.622;2022-12-05T13:47:54;110.60;;;49.10;;
52798;SDS011;38667;42.872;74.622;2022-12-05T13:50:41;118.37;;;52.90;;
52798;SDS011;38667;42.872;74.622;2022-12-05T13:53:25;102.40;;;46.63;;
52798;SDS011;38667;42.872;74.622;2022-12-05T13:56:01;115.20;;;51.53;;
52798;SDS011;38667;42.872;74.622;2022-12-05T13:58:42;125.03;;;54.93;;
52798;SDS011;38667;42.872;74.622;2022-12-05T14:04:42;137.97;;;61.20;;
52798;SDS011;38667;42.872;74.622;2022-12-05T14:07:13;145.37;;;60.27;;
52798;SDS011;38667;42.872;74.622;2022-12-05T14:10:07;134.17;;;62.43;;
52798;SDS011;38667;42.872;74.622;2022-12-05T14:12:47;138.53;;;61.30;;
52798;SDS011;38667;42.872;74.622;2022-12-05T14:15:32;126.10;;;54.53;;
52798;SDS011;38667;42.872;74.622;2022-12-05T14:18:03;118.90;;;51.73;;
52798;SDS011;38667;42.872;74.622;2022-12-05T14:20:44;105.87;;;46.87;;
52798;SDS011;38667;42.872;74.622;2022-12-05T14:23:20;103.23;;;44.53;;
52798;SDS011;38667;42.872;74.622;2022-12-05T14:25:59;149.20;;;62.07;;
52798;SDS011;38667;42.872;74.622;2022-12-05T14:28:37;121.33;;;50.80;;
52798;SDS011;38667;42.872;74.622;2022-12-05T14:31:18;116.47;;;50.23;;
52798;SDS011;38667;42.872;74.622;2022-12-05T14:34:05;127.67;;;54.97;;